sensor_id;sensor_type;location;lat;lon;timestamp;pressure;altitude;pressure_sealevel;temperature;humidity
46756;BME280;32506;52.826;-1.192;2022-08-18T00:02:27;101008.88;;;18.75;49.31
46756;BME280;32506;52.826;-1.192;2022-08-18T00:04:53;101002.91;;;18.73;49.34
46756;BME280;32506;52.826;-1.192;2022-08-18T00:07:29;101003.16;;;18.72;49.39
46756;BME280;32506;52.826;-1.192;2022-08-18T00:09:55;101008.56;;;18.72;49.56
46756;BME280;32506;52.826;-1.192;2022-08-18T00:12:27;100998.00;;;18.70;49.43
46756;BME280;32506;52.826;-1.192;2022-08-18T00:14:54;101004.50;;;18.69;49.45
46756;BME280;32506;52.826;-1.192;2022-08-18T00:17:21;101006.63;;;18.67;49.37
46756;BME280;32506;52.826;-1.192;2022-08-18T00:19:46;101002.28;;;18.66;49.42
46756;BME280;32506;52.826;-1.192;2022-08-18T00:22:15;100997.94;;;18.65;49.33
46756;BME280;32506;52.826;-1.192;2022-08-18T00:24:46;100996.34;;;18.64;49.10
46756;BME280;32506;52.826;-1.192;2022-08-18T00:27:12;100995.50;;;18.64;49.41
46756;BME280;32506;52.826;-1.192;2022-08-18T00:29:37;100993.88;;;18.63;49.26
46756;BME280;32506;52.826;-1.192;2022-08-18T00:32:14;100998.47;;;18.62;49.21
46756;BME280;32506;52.826;-1.192;2022-08-18T00:34:40;100990.88;;;18.59;49.22
46756;BME280;32506;52.826;-1.192;2022-08-18T00:37:06;100984.63;;;18.58;49.18
46756;BME280;32506;52.826;-1.192;2022-08-18T00:39:31;100984.88;;;18.57;49.20
46756;BME280;32506;52.826;-1.192;2022-08-18T00:41:59;100982.16;;;18.57;49.35
46756;BME280;32506;52.826;-1.192;2022-08-18T00:44:35;100978.91;;;18.55;49.29
46756;BME280;32506;52.826;-1.192;2022-08-18T00:47:01;100983.75;;;18.53;49.25
46756;BME280;32506;52.826;-1.192;2022-08-18T00:49:26;100982.69;;;18.54;49.25
46756;BME280;32506;52.826;-1.192;2022-08-18T00:51:52;100977.53;;;18.52;49.34
46756;BME280;32506;52.826;-1.192;2022-08-18T00:54:23;100973.19;;;18.51;49.31
46756;BME280;32506;52.826;-1.192;2022-08-18T00:56:56;100976.97;;;18.50;49.42
46756;BME280;32506;52.826;-1.192;2022-08-18T01:01:55;100979.94;;;18.49;49.37
46756;BME280;32506;52.826;-1.192;2022-08-18T01:04:38;100964.75;;;18.48;49.71
46756;BME280;32506;52.826;-1.192;2022-08-18T01:07:31;100969.38;;;18.47;49.56
46756;BME280;32506;52.826;-1.192;2022-08-18T01:09:59;100968.00;;;18.44;49.69
46756;BME280;32506;52.826;-1.192;2022-08-18T01:12:25;100966.59;;;18.42;49.93
46756;BME280;32506;52.826;-1.192;2022-08-18T01:14:52;100964.97;;;18.41;49.98
46756;BME280;32506;52.826;-1.192;2022-08-18T01:17:18;100964.16;;;18.40;50.32
46756;BME280;32506;52.826;-1.192;2022-08-18T01:20:03;100969.84;;;18.39;50.21
46756;BME280;32506;52.826;-1.192;2022-08-18T01:23:24;100973.91;;;18.41;50.02
46756;BME280;32506;52.826;-1.192;2022-08-18T01:25:50;100968.47;;;18.36;49.91
46756;BME280;32506;52.826;-1.192;2022-08-18T01:28:30;100972.22;;;18.35;50.14
46756;BME280;32506;52.826;-1.192;2022-08-18T01:30:57;100974.94;;;18.35;50.24
46756;BME280;32506;52.826;-1.192;2022-08-18T01:33:30;100979.53;;;18.35;50.09
46756;BME280;32506;52.826;-1.192;2022-08-18T01:35:59;100976.25;;;18.33;50.11
46756;BME280;32506;52.826;-1.192;2022-08-18T01:38:25;100970.03;;;18.32;50.05
46756;BME280;32506;52.826;-1.192;2022-08-18T01:40:51;100963.78;;;18.32;50.12
46756;BME280;32506;52.826;-1.192;2022-08-18T01:43:18;100956.78;;;18.31;50.20
46756;BME280;32506;52.826;-1.192;2022-08-18T01:45:44;100956.19;;;18.28;49.97
46756;BME280;32506;52.826;-1.192;2022-08-18T01:48:10;100967.03;;;18.28;50.16
46756;BME280;32506;52.826;-1.192;2022-08-18T01:50:36;100955.41;;;18.28;50.09
46756;BME280;32506;52.826;-1.192;2022-08-18T01:53:04;100956.72;;;18.25;50.05
46756;BME280;32506;52.826;-1.192;2022-08-18T01:55:33;100961.06;;;18.26;50.11
46756;BME280;32506;52.826;-1.192;2022-08-18T01:57:59;100957.53;;;18.26;50.11
46756;BME280;32506;52.826;-1.192;2022-08-18T02:00:27;100958.84;;;18.23;50.07
46756;BME280;32506;52.826;-1.192;2022-08-18T02:02:52;100959.94;;;18.22;49.96
46756;BME280;32506;52.826;-1.192;2022-08-18T02:05:23;100959.09;;;18.22;50.15
46756;BME280;32506;52.826;-1.192;2022-08-18T02:07:52;100962.88;;;18.21;50.05
46756;BME280;32506;52.826;-1.192;2022-08-18T02:10:18;100969.94;;;18.22;50.28
46756;BME280;32506;52.826;-1.192;2022-08-18T02:12:44;100962.31;;;18.19;50.23
46756;BME280;32506;52.826;-1.192;2022-08-18T02:15:10;100966.09;;;18.18;50.04
46756;BME280;32506;52.826;-1.192;2022-08-18T02:17:42;100954.47;;;18.17;50.11
46756;BME280;32506;52.826;-1.192;2022-08-18T02:20:12;100958.25;;;18.16;50.20
46756;BME280;32506;52.826;-1.192;2022-08-18T02:22:39;100953.91;;;18.15;50.14
46756;BME280;32506;52.826;-1.192;2022-08-18T02:25:05;100954.16;;;18.14;50.04
46756;BME280;32506;52.826;-1.192;2022-08-18T02:27:30;100939.81;;;18.13;49.92
46756;BME280;32506;52.826;-1.192;2022-08-18T02:29:58;100947.09;;;18.13;49.69
46756;BME280;32506;52.826;-1.192;2022-08-18T02:32:24;100942.78;;;18.11;50.26
46756;BME280;32506;52.826;-1.192;2022-08-18T02:34:50;100941.94;;;18.11;50.15
46756;BME280;32506;52.826;-1.192;2022-08-18T02:37:15;100936.81;;;18.09;50.10
46756;BME280;32506;52.826;-1.192;2022-08-18T02:39:41;100939.50;;;18.09;49.84
46756;BME280;32506;52.826;-1.192;2022-08-18T02:42:07;100932.47;;;18.08;50.00
46756;BME280;32506;52.826;-1.192;2022-08-18T02:44:33;100920.25;;;18.06;49.86
46756;BME280;32506;52.826;-1.192;2022-08-18T02:47:00;100915.69;;;18.06;49.85
46756;BME280;32506;52.826;-1.192;2022-08-18T02:49:26;100905.13;;;18.05;49.97
46756;BME280;32506;52.826;-1.192;2022-08-18T02:51:52;100915.09;;;18.04;49.87
46756;BME280;32506;52.826;-1.192;2022-08-18T02:54:20;100916.19;;;18.03;49.88
46756;BME280;32506;52.826;-1.192;2022-08-18T02:56:48;100918.88;;;18.03;49.74
46756;BME280;32506;52.826;-1.192;2022-08-18T02:59:19;100922.69;;;18.02;49.70
46756;BME280;32506;52.826;-1.192;2022-08-18T03:01:48;100915.63;;;18.01;49.68
46756;BME280;32506;52.826;-1.192;2022-08-18T03:04:21;100909.38;;;18.01;49.54
46756;BME280;32506;52.826;-1.192;2022-08-18T03:06:48;100905.88;;;18.00;49.80
46756;BME280;32506;52.826;-1.192;2022-08-18T03:09:15;100903.44;;;17.99;49.56
46756;BME280;32506;52.826;-1.192;2022-08-18T03:11:42;100910.75;;;17.98;49.73
46756;BME280;32506;52.826;-1.192;2022-08-18T03:14:08;100909.09;;;17.97;49.42
46756;BME280;32506;52.826;-1.192;2022-08-18T03:16:36;100915.31;;;17.98;49.79
46756;BME280;32506;52.826;-1.192;2022-08-18T03:19:02;100913.66;;;17.97;49.58
46756;BME280;32506;52.826;-1.192;2022-08-18T03:21:29;100917.22;;;17.97;49.59
46756;BME280;32506;52.826;-1.192;2022-08-18T03:23:55;100906.88;;;17.94;49.81
46756;BME280;32506;52.826;-1.192;2022-08-18T03:26:22;100895.25;;;17.93;49.52
46756;BME280;32506;52.826;-1.192;2022-08-18T03:28:50;100889.84;;;17.93;49.40
46756;BME280;32506;52.826;-1.192;2022-08-18T03:31:18;100881.75;;;17.93;49.48
46756;BME280;32506;52.826;-1.192;2022-08-18T03:33:44;100871.19;;;17.92;49.46
46756;BME280;32506;52.826;-1.192;2022-08-18T03:36:13;100860.59;;;17.90;49.14
46756;BME280;32506;52.826;-1.192;2022-08-18T03:38:40;100861.41;;;17.91;49.32
46756;BME280;32506;52.826;-1.192;2022-08-18T03:41:08;100851.66;;;17.90;49.40
46756;BME280;32506;52.826;-1.192;2022-08-18T03:43:34;100842.75;;;17.89;49.28
46756;BME280;32506;52.826;-1.192;2022-08-18T03:46:11;100845.44;;;17.89;49.23
46756;BME280;32506;52.826;-1.192;2022-08-18T03:48:38;100844.88;;;17.87;49.30
46756;BME280;32506;52.826;-1.192;2022-08-18T03:51:07;100845.69;;;17.88;49.25
46756;BME280;32506;52.826;-1.192;2022-08-18T03:53:36;100844.88;;;17.87;49.13
46756;BME280;32506;52.826;-1.192;2022-08-18T03:56:06;100847.56;;;17.87;49.19
46756;BME280;32506;52.826;-1.192;2022-08-18T03:58:33;100853.56;;;17.89;49.41
46756;BME280;32506;52.826;-1.192;2022-08-18T04:01:01;100851.63;;;17.85;49.09
46756;BME280;32506;52.826;-1.192;2022-08-18T04:03:27;100848.94;;;17.85;49.28
46756;BME280;32506;52.826;-1.192;2022-08-18T04:05:53;100848.34;;;17.83;49.37
46756;BME280;32506;52.826;-1.192;2022-08-18T04:08:18;100845.66;;;17.83;48.93
46756;BME280;32506;52.826;-1.192;2022-08-18T04:10:44;100848.59;;;17.81;49.00
46756;BME280;32506;52.826;-1.192;2022-08-18T04:13:09;100853.19;;;17.81;49.04
46756;BME280;32506;52.826;-1.192;2022-08-18T04:15:36;100854.00;;;17.81;49.02
46756;BME280;32506;52.826;-1.192;2022-08-18T04:18:01;100853.19;;;17.81;49.03
46756;BME280;32506;52.826;-1.192;2022-08-18T04:20:33;100861.53;;;17.79;48.74
46756;BME280;32506;52.826;-1.192;2022-08-18T04:22:59;100858.03;;;17.78;48.91
46756;BME280;32506;52.826;-1.192;2022-08-18T04:25:25;100871.56;;;17.78;48.76
46756;BME280;32506;52.826;-1.192;2022-08-18T04:27:52;100868.03;;;17.78;48.95
46756;BME280;32506;52.826;-1.192;2022-08-18T04:30:22;100872.88;;;17.76;48.95
46756;BME280;32506;52.826;-1.192;2022-08-18T04:32:48;100880.19;;;17.75;48.60
46756;BME280;32506;52.826;-1.192;2022-08-18T04:35:15;100869.38;;;17.75;48.78
46756;BME280;32506;52.826;-1.192;2022-08-18T04:37:41;100869.38;;;17.75;48.69
46756;BME280;32506;52.826;-1.192;2022-08-18T04:40:08;100863.38;;;17.73;48.80
46756;BME280;32506;52.826;-1.192;2022-08-18T04:42:34;100870.44;;;17.74;48.94
46756;BME280;32506;52.826;-1.192;2022-08-18T04:45:00;100868.78;;;17.73;48.70
46756;BME280;32506;52.826;-1.192;2022-08-18T04:47:25;100867.97;;;17.73;48.32
46756;BME280;32506;52.826;-1.192;2022-08-18T04:49:51;100864.44;;;17.72;48.68
46756;BME280;32506;52.826;-1.192;2022-08-18T04:52:16;100866.34;;;17.72;48.71
46756;BME280;32506;52.826;-1.192;2022-08-18T04:55:01;100869.06;;;17.72;48.46
46756;BME280;32506;52.826;-1.192;2022-08-18T04:57:28;100872.00;;;17.70;48.73
46756;BME280;32506;52.826;-1.192;2022-08-18T04:59:55;100879.06;;;17.71;48.57
46756;BME280;32506;52.826;-1.192;2022-08-18T05:02:22;100876.59;;;17.70;48.32
46756;BME280;32506;52.826;-1.192;2022-08-18T05:04:48;100864.97;;;17.69;48.51
46756;BME280;32506;52.826;-1.192;2022-08-18T05:07:17;100873.88;;;17.70;48.43
46756;BME280;32506;52.826;-1.192;2022-08-18T05:09:43;100862.25;;;17.69;48.51
46756;BME280;32506;52.826;-1.192;2022-08-18T05:12:11;100859.56;;;17.69;48.64
46756;BME280;32506;52.826;-1.192;2022-08-18T05:14:41;100864.97;;;17.69;48.29
46756;BME280;32506;52.826;-1.192;2022-08-18T05:17:09;100860.63;;;17.68;48.56
46756;BME280;32506;52.826;-1.192;2022-08-18T05:19:35;100859.81;;;17.68;48.44
46756;BME280;32506;52.826;-1.192;2022-08-18T05:22:01;100857.91;;;17.68;48.33
46756;BME280;32506;52.826;-1.192;2022-08-18T05:24:29;100845.25;;;17.69;48.47
46756;BME280;32506;52.826;-1.192;2022-08-18T05:26:55;100851.44;;;17.69;48.47
46756;BME280;32506;52.826;-1.192;2022-08-18T05:29:22;100850.91;;;17.67;48.36
46756;BME280;32506;52.826;-1.192;2022-08-18T05:31:51;100858.75;;;17.69;48.12
46756;BME280;32506;52.826;-1.192;2022-08-18T05:34:18;100860.88;;;17.67;48.32
46756;BME280;32506;52.826;-1.192;2022-08-18T05:41:49;100851.72;;;17.68;48.50
46756;BME280;32506;52.826;-1.192;2022-08-18T05:44:21;100853.59;;;17.67;48.34
46756;BME280;32506;52.826;-1.192;2022-08-18T05:49:20;100850.91;;;17.67;48.13
46756;BME280;32506;52.826;-1.192;2022-08-18T05:52:07;100856.84;;;17.69;48.37
46756;BME280;32506;52.826;-1.192;2022-08-18T05:54:49;100854.41;;;17.68;48.34
46756;BME280;32506;52.826;-1.192;2022-08-18T05:57:46;100845.50;;;17.67;48.22
46756;BME280;32506;52.826;-1.192;2022-08-18T06:00:19;100845.50;;;17.67;47.97
46756;BME280;32506;52.826;-1.192;2022-08-18T06:03:00;100849.81;;;17.68;48.11
46756;BME280;32506;52.826;-1.192;2022-08-18T06:05:30;100841.16;;;17.66;47.86
46756;BME280;32506;52.826;-1.192;2022-08-18T06:08:07;100849.81;;;17.68;48.01
46756;BME280;32506;52.826;-1.192;2022-08-18T06:10:35;100843.84;;;17.66;47.92
46756;BME280;32506;52.826;-1.192;2022-08-18T06:13:01;100843.59;;;17.68;47.75
46756;BME280;32506;52.826;-1.192;2022-08-18T06:23:49;100832.78;;;17.68;47.76
46756;BME280;32506;52.826;-1.192;2022-08-18T06:26:17;100833.59;;;17.68;47.96
46756;BME280;32506;52.826;-1.192;2022-08-18T06:28:48;100836.28;;;17.68;47.93
46756;BME280;32506;52.826;-1.192;2022-08-18T06:38:02;100827.69;;;17.71;48.06
46756;BME280;32506;52.826;-1.192;2022-08-18T06:39:56;100827.69;;;17.71;48.17
46756;BME280;32506;52.826;-1.192;2022-08-18T06:42:25;100821.19;;;17.72;48.02
46756;BME280;32506;52.826;-1.192;2022-08-18T06:45:00;100825.53;;;17.73;48.46
46756;BME280;32506;52.826;-1.192;2022-08-18T06:47:43;100823.41;;;17.75;48.74
46756;BME280;32506;52.826;-1.192;2022-08-18T06:50:19;100821.53;;;17.76;49.14
46756;BME280;32506;52.826;-1.192;2022-08-18T06:53:13;100828.84;;;17.81;49.38
46756;BME280;32506;52.826;-1.192;2022-08-18T06:55:45;100834.50;;;17.79;49.61
46756;BME280;32506;52.826;-1.192;2022-08-18T07:06:04;100827.28;;;17.85;50.25
46756;BME280;32506;52.826;-1.192;2022-08-18T07:08:36;100834.31;;;17.86;50.42
46756;BME280;32506;52.826;-1.192;2022-08-18T07:13:55;100839.22;;;17.89;51.38
46756;BME280;32506;52.826;-1.192;2022-08-18T07:16:28;100844.16;;;17.92;51.82
46756;BME280;32506;52.826;-1.192;2022-08-18T07:19:09;100840.13;;;17.94;52.12
46756;BME280;32506;52.826;-1.192;2022-08-18T07:21:37;100846.34;;;17.95;52.20
46756;BME280;32506;52.826;-1.192;2022-08-18T07:27:05;100844.47;;;18.01;52.28
46756;BME280;32506;52.826;-1.192;2022-08-18T07:29:40;100841.78;;;18.01;52.70
46756;BME280;32506;52.826;-1.192;2022-08-18T07:32:24;100852.09;;;18.04;52.98
46756;BME280;32506;52.826;-1.192;2022-08-18T07:34:53;100839.38;;;18.04;52.55
46756;BME280;32506;52.826;-1.192;2022-08-18T07:37:27;100838.06;;;18.07;52.96
46756;BME280;32506;52.826;-1.192;2022-08-18T07:39:59;100838.63;;;18.09;53.21
46756;BME280;32506;52.826;-1.192;2022-08-18T07:42:41;100834.34;;;18.13;52.88
46756;BME280;32506;52.826;-1.192;2022-08-18T07:45:30;100837.34;;;18.17;53.18
46756;BME280;32506;52.826;-1.192;2022-08-18T07:48:05;100836.25;;;18.18;53.60
46756;BME280;32506;52.826;-1.192;2022-08-18T07:53:17;100835.50;;;18.22;53.90
46756;BME280;32506;52.826;-1.192;2022-08-18T07:55:50;100830.38;;;18.26;54.55
46756;BME280;32506;52.826;-1.192;2022-08-18T08:01:45;100834.50;;;18.34;55.29
46756;BME280;32506;52.826;-1.192;2022-08-18T08:04:40;100836.41;;;18.38;55.32
46756;BME280;32506;52.826;-1.192;2022-08-18T08:07:12;100840.50;;;18.41;55.23
46756;BME280;32506;52.826;-1.192;2022-08-18T08:15:45;100831.94;;;18.54;55.88
46756;BME280;32506;52.826;-1.192;2022-08-18T08:20:58;100829.84;;;18.61;56.35
46756;BME280;32506;52.826;-1.192;2022-08-18T08:23:33;100836.38;;;18.66;56.63
46756;BME280;32506;52.826;-1.192;2022-08-18T08:31:57;100831.00;;;18.76;57.22
46756;BME280;32506;52.826;-1.192;2022-08-18T08:37:16;100819.94;;;18.83;56.95
46756;BME280;32506;52.826;-1.192;2022-08-18T08:40:00;100822.66;;;18.88;56.90
46756;BME280;32506;52.826;-1.192;2022-08-18T08:45:13;100816.25;;;18.94;57.32
46756;BME280;32506;52.826;-1.192;2022-08-18T08:50:28;100821.97;;;19.03;57.60
46756;BME280;32506;52.826;-1.192;2022-08-18T08:52:59;100817.69;;;19.07;58.18
46756;BME280;32506;52.826;-1.192;2022-08-18T08:55:36;100816.06;;;19.11;57.75
46756;BME280;32506;52.826;-1.192;2022-08-18T08:58:15;100810.91;;;19.15;57.72
46756;BME280;32506;52.826;-1.192;2022-08-18T09:00:48;100813.91;;;19.18;57.74
46756;BME280;32506;52.826;-1.192;2022-08-18T09:05:59;100810.69;;;19.26;58.12
46756;BME280;32506;52.826;-1.192;2022-08-18T09:08:46;100822.34;;;19.32;58.22
46756;BME280;32506;52.826;-1.192;2022-08-18T09:21:48;100805.31;;;19.47;57.84
46756;BME280;32506;52.826;-1.192;2022-08-18T09:24:25;100816.19;;;19.52;57.79
46756;BME280;32506;52.826;-1.192;2022-08-18T09:29:52;100804.00;;;19.60;57.55
46756;BME280;32506;52.826;-1.192;2022-08-18T09:37:53;100794.00;;;19.71;58.48
46756;BME280;32506;52.826;-1.192;2022-08-18T09:40:49;100796.44;;;19.72;58.19
46756;BME280;32506;52.826;-1.192;2022-08-18T09:43:52;100785.88;;;19.76;57.95
46756;BME280;32506;52.826;-1.192;2022-08-18T09:51:57;100783.47;;;19.90;58.12
46756;BME280;32506;52.826;-1.192;2022-08-18T09:54:30;100784.84;;;19.92;57.67
46756;BME280;32506;52.826;-1.192;2022-08-18T09:57:15;100772.91;;;19.99;57.74
46756;BME280;32506;52.826;-1.192;2022-08-18T10:10:33;100760.41;;;20.23;58.22
46756;BME280;32506;52.826;-1.192;2022-08-18T10:21:23;100754.41;;;20.52;58.39
46756;BME280;32506;52.826;-1.192;2022-08-18T10:34:37;100754.81;;;21.01;58.65
46756;BME280;32506;52.826;-1.192;2022-08-18T10:39:45;100753.03;;;21.25;58.82
46756;BME280;32506;52.826;-1.192;2022-08-18T10:42:24;100745.09;;;21.39;59.33
46756;BME280;32506;52.826;-1.192;2022-08-18T10:45:00;100748.81;;;21.54;59.09
46756;BME280;32506;52.826;-1.192;2022-08-18T10:47:29;100745.44;;;21.67;58.73
46756;BME280;32506;52.826;-1.192;2022-08-18T10:49:55;100743.44;;;21.83;58.48
46756;BME280;32506;52.826;-1.192;2022-08-18T11:00:13;100734.66;;;22.50;57.89
46756;BME280;32506;52.826;-1.192;2022-08-18T11:05:27;100729.38;;;22.83;57.26
46756;BME280;32506;52.826;-1.192;2022-08-18T11:07:58;100722.63;;;23.00;56.90
46756;BME280;32506;52.826;-1.192;2022-08-18T11:13:27;100712.09;;;23.31;56.38
46756;BME280;32506;52.826;-1.192;2022-08-18T11:18:45;100687.09;;;23.62;55.53
46756;BME280;32506;52.826;-1.192;2022-08-18T11:21:24;100679.75;;;23.76;55.05
46756;BME280;32506;52.826;-1.192;2022-08-18T11:24:09;100682.84;;;23.89;54.77
46756;BME280;32506;52.826;-1.192;2022-08-18T11:26:53;100678.84;;;24.00;54.03
46756;BME280;32506;52.826;-1.192;2022-08-18T11:29:35;100672.56;;;24.13;53.37
46756;BME280;32506;52.826;-1.192;2022-08-18T11:32:15;100681.88;;;24.26;53.01
46756;BME280;32506;52.826;-1.192;2022-08-18T11:38:00;100679.16;;;24.54;52.00
46756;BME280;32506;52.826;-1.192;2022-08-18T11:40:37;100668.84;;;24.65;51.83
46756;BME280;32506;52.826;-1.192;2022-08-18T11:43:16;100670.44;;;24.80;51.77
46756;BME280;32506;52.826;-1.192;2022-08-18T11:53:34;100666.97;;;25.25;49.48
46756;BME280;32506;52.826;-1.192;2022-08-18T11:56:10;100653.56;;;25.37;49.39
46756;BME280;32506;52.826;-1.192;2022-08-18T11:58:44;100658.16;;;25.51;49.14
46756;BME280;32506;52.826;-1.192;2022-08-18T12:17:30;100645.03;;;26.24;46.83
46756;BME280;32506;52.826;-1.192;2022-08-18T12:19:56;100647.97;;;26.37;46.47
46756;BME280;32506;52.826;-1.192;2022-08-18T12:22:29;100648.16;;;26.49;46.55
46756;BME280;32506;52.826;-1.192;2022-08-18T12:24:59;100638.19;;;26.62;45.73
46756;BME280;32506;52.826;-1.192;2022-08-18T12:27:26;100633.72;;;26.75;45.26
46756;BME280;32506;52.826;-1.192;2022-08-18T12:29:54;100637.44;;;26.88;45.11
46756;BME280;32506;52.826;-1.192;2022-08-18T12:32:21;100637.13;;;26.98;44.86
46756;BME280;32506;52.826;-1.192;2022-08-18T12:34:48;100636.44;;;27.10;44.44
46756;BME280;32506;52.826;-1.192;2022-08-18T12:37:19;100636.47;;;27.19;44.26
46756;BME280;32506;52.826;-1.192;2022-08-18T12:39:45;100635.97;;;27.25;44.36
46756;BME280;32506;52.826;-1.192;2022-08-18T12:42:11;100629.66;;;27.34;43.36
46756;BME280;32506;52.826;-1.192;2022-08-18T12:44:37;100630.31;;;27.39;43.16
46756;BME280;32506;52.826;-1.192;2022-08-18T12:47:26;100627.91;;;27.46;43.03
46756;BME280;32506;52.826;-1.192;2022-08-18T12:49:52;100626.75;;;27.56;43.40
46756;BME280;32506;52.826;-1.192;2022-08-18T12:52:18;100632.53;;;27.63;42.68
46756;BME280;32506;52.826;-1.192;2022-08-18T12:54:44;100638.47;;;27.74;42.69
46756;BME280;32506;52.826;-1.192;2022-08-18T12:57:23;100644.41;;;27.85;41.66
46756;BME280;32506;52.826;-1.192;2022-08-18T12:59:49;100633.72;;;27.92;41.98
46756;BME280;32506;52.826;-1.192;2022-08-18T13:02:14;100625.47;;;28.01;41.62
46756;BME280;32506;52.826;-1.192;2022-08-18T13:04:41;100628.03;;;28.06;41.10
46756;BME280;32506;52.826;-1.192;2022-08-18T13:07:07;100627.84;;;28.11;40.16
46756;BME280;32506;52.826;-1.192;2022-08-18T13:09:34;100628.78;;;28.16;39.94
46756;BME280;32506;52.826;-1.192;2022-08-18T13:12:00;100636.38;;;28.19;40.01
46756;BME280;32506;52.826;-1.192;2022-08-18T13:14:25;100642.00;;;28.22;39.64
46756;BME280;32506;52.826;-1.192;2022-08-18T13:16:51;100634.72;;;28.26;39.18
46756;BME280;32506;52.826;-1.192;2022-08-18T13:19:17;100631.63;;;28.28;38.93
46756;BME280;32506;52.826;-1.192;2022-08-18T13:21:43;100622.75;;;28.31;39.28
46756;BME280;32506;52.826;-1.192;2022-08-18T13:24:09;100619.78;;;28.36;39.38
46756;BME280;32506;52.826;-1.192;2022-08-18T13:26:38;100608.16;;;28.39;39.02
46756;BME280;32506;52.826;-1.192;2022-08-18T13:29:05;100613.31;;;28.41;38.49
46756;BME280;32506;52.826;-1.192;2022-08-18T13:31:31;100614.09;;;28.41;38.01
46756;BME280;32506;52.826;-1.192;2022-08-18T13:33:57;100610.56;;;28.41;37.20
46756;BME280;32506;52.826;-1.192;2022-08-18T13:36:26;100616.06;;;28.41;37.57
46756;BME280;32506;52.826;-1.192;2022-08-18T13:38:52;100614.44;;;28.40;37.48
46756;BME280;32506;52.826;-1.192;2022-08-18T13:41:19;100612.50;;;28.40;37.28
46756;BME280;32506;52.826;-1.192;2022-08-18T13:43:45;100609.75;;;28.40;37.30
46756;BME280;32506;52.826;-1.192;2022-08-18T13:46:13;100601.19;;;28.42;36.92
46756;BME280;32506;52.826;-1.192;2022-08-18T13:48:40;100604.72;;;28.42;37.01
46756;BME280;32506;52.826;-1.192;2022-08-18T13:51:10;100599.22;;;28.42;37.05
46756;BME280;32506;52.826;-1.192;2022-08-18T13:53:37;100590.97;;;28.42;37.11
46756;BME280;32506;52.826;-1.192;2022-08-18T13:56:04;100595.69;;;28.42;36.81
46756;BME280;32506;52.826;-1.192;2022-08-18T13:58:30;100591.31;;;28.41;37.09
46756;BME280;32506;52.826;-1.192;2022-08-18T14:01:01;100582.28;;;28.40;37.06
46756;BME280;32506;52.826;-1.192;2022-08-18T14:03:28;100586.16;;;28.39;37.26
46756;BME280;32506;52.826;-1.192;2022-08-18T14:05:54;100581.78;;;28.38;36.76
46756;BME280;32506;52.826;-1.192;2022-08-18T14:08:23;100583.25;;;28.36;36.76
46756;BME280;32506;52.826;-1.192;2022-08-18T14:10:52;100574.56;;;28.34;37.31
46756;BME280;32506;52.826;-1.192;2022-08-18T14:13:18;100574.88;;;28.32;36.87
46756;BME280;32506;52.826;-1.192;2022-08-18T14:15:44;100577.16;;;28.30;36.93
46756;BME280;32506;52.826;-1.192;2022-08-18T14:18:10;100572.00;;;28.28;37.32
46756;BME280;32506;52.826;-1.192;2022-08-18T14:20:36;100565.56;;;28.24;37.72
46756;BME280;32506;52.826;-1.192;2022-08-18T14:23:20;100572.88;;;28.20;37.15
46756;BME280;32506;52.826;-1.192;2022-08-18T14:26:04;100560.94;;;28.16;37.25
46756;BME280;32506;52.826;-1.192;2022-08-18T14:28:48;100562.72;;;28.12;36.95
46756;BME280;32506;52.826;-1.192;2022-08-18T14:31:13;100562.25;;;28.10;36.95
46756;BME280;32506;52.826;-1.192;2022-08-18T14:33:39;100558.22;;;28.07;36.94
46756;BME280;32506;52.826;-1.192;2022-08-18T14:36:05;100556.94;;;28.05;37.23
46756;BME280;32506;52.826;-1.192;2022-08-18T14:38:31;100551.00;;;28.03;37.45
46756;BME280;32506;52.826;-1.192;2022-08-18T14:40:59;100543.06;;;28.01;37.43
46756;BME280;32506;52.826;-1.192;2022-08-18T14:43:26;100541.47;;;28.00;37.52
46756;BME280;32506;52.826;-1.192;2022-08-18T14:46:01;100535.97;;;28.00;37.63
46756;BME280;32506;52.826;-1.192;2022-08-18T14:48:27;100542.59;;;27.99;37.58
46756;BME280;32506;52.826;-1.192;2022-08-18T14:50:55;100543.38;;;28.00;37.65
46756;BME280;32506;52.826;-1.192;2022-08-18T14:53:26;100544.50;;;27.99;37.55
46756;BME280;32506;52.826;-1.192;2022-08-18T14:55:53;100544.84;;;27.97;37.76
46756;BME280;32506;52.826;-1.192;2022-08-18T14:58:24;100533.06;;;27.96;37.70
46756;BME280;32506;52.826;-1.192;2022-08-18T15:00:53;100534.19;;;27.95;37.15
46756;BME280;32506;52.826;-1.192;2022-08-18T15:03:23;100527.91;;;27.95;37.31
46756;BME280;32506;52.826;-1.192;2022-08-18T15:05:51;100522.09;;;27.96;37.34
46756;BME280;32506;52.826;-1.192;2022-08-18T15:08:17;100517.38;;;27.97;37.69
46756;BME280;32506;52.826;-1.192;2022-08-18T15:10:43;100518.66;;;28.00;37.84
46756;BME280;32506;52.826;-1.192;2022-08-18T15:13:09;100522.88;;;28.06;38.25
46756;BME280;32506;52.826;-1.192;2022-08-18T15:15:35;100511.19;;;28.09;38.64
46756;BME280;32506;52.826;-1.192;2022-08-18T15:18:00;100514.56;;;28.15;38.65
46756;BME280;32506;52.826;-1.192;2022-08-18T15:20:26;100517.94;;;28.20;38.82
46756;BME280;32506;52.826;-1.192;2022-08-18T15:22:52;100517.72;;;28.25;38.55
46756;BME280;32506;52.826;-1.192;2022-08-18T15:25:37;100510.09;;;28.31;38.51
46756;BME280;32506;52.826;-1.192;2022-08-18T15:28:18;100519.06;;;28.40;38.68
46756;BME280;32506;52.826;-1.192;2022-08-18T15:30:46;100522.88;;;28.48;38.57
46756;BME280;32506;52.826;-1.192;2022-08-18T15:33:12;100514.09;;;28.55;38.53
46756;BME280;32506;52.826;-1.192;2022-08-18T15:35:40;100517.47;;;28.60;38.53
46756;BME280;32506;52.826;-1.192;2022-08-18T15:38:07;100521.63;;;28.67;38.61
46756;BME280;32506;52.826;-1.192;2022-08-18T15:40:33;100513.16;;;28.72;38.15
46756;BME280;32506;52.826;-1.192;2022-08-18T15:43:00;100505.41;;;28.74;38.33
46756;BME280;32506;52.826;-1.192;2022-08-18T15:45:29;100504.72;;;28.77;37.60
46756;BME280;32506;52.826;-1.192;2022-08-18T15:47:57;100495.78;;;28.80;37.44